sensor_id;sensor_type;location;lat;lon;timestamp;temperature;humidity
24146;DHT22;12308;50.948;4.706;2022-09-03T00:01:10;19.40;99.90
24146;DHT22;12308;50.948;4.706;2022-09-03T00:03:44;19.30;99.90
24146;DHT22;12308;50.948;4.706;2022-09-03T00:06:13;19.30;99.90
24146;DHT22;12308;50.948;4.706;2022-09-03T00:08:53;19.20;99.90
24146;DHT22;12308;50.948;4.706;2022-09-03T00:11:26;19.30;99.90
24146;DHT22;12308;50.948;4.706;2022-09-03T00:13:59;19.40;99.90
24146;DHT22;12308;50.948;4.706;2022-09-03T00:16:33;19.40;99.90
24146;DHT22;12308;50.948;4.706;2022-09-03T00:19:02;19.30;99.90
24146;DHT22;12308;50.948;4.706;2022-09-03T00:24:36;19.30;99.90
24146;DHT22;12308;50.948;4.706;2022-09-03T00:27:06;19.40;99.90
24146;DHT22;12308;50.948;4.706;2022-09-03T00:29:38;19.30;99.90
24146;DHT22;12308;50.948;4.706;2022-09-03T00:32:33;19.40;99.90
24146;DHT22;12308;50.948;4.706;2022-09-03T00:35:03;19.30;99.90
24146;DHT22;12308;50.948;4.706;2022-09-03T00:37:31;19.40;99.90
24146;DHT22;12308;50.948;4.706;2022-09-03T00:39:57;19.40;99.90
24146;DHT22;12308;50.948;4.706;2022-09-03T00:42:39;19.30;99.90
24146;DHT22;12308;50.948;4.706;2022-09-03T00:45:26;19.30;99.90
24146;DHT22;12308;50.948;4.706;2022-09-03T01:04:55;19.30;99.90
24146;DHT22;12308;50.948;4.706;2022-09-03T01:07:43;19.30;99.90
24146;DHT22;12308;50.948;4.706;2022-09-03T01:13:02;19.40;99.90
24146;DHT22;12308;50.948;4.706;2022-09-03T01:29:02;19.50;99.90
24146;DHT22;12308;50.948;4.706;2022-09-03T01:31:52;19.50;99.90
24146;DHT22;12308;50.948;4.706;2022-09-03T01:37:41;19.50;99.90
24146;DHT22;12308;50.948;4.706;2022-09-03T01:45:48;19.60;99.90
24146;DHT22;12308;50.948;4.706;2022-09-03T01:48:31;19.60;99.90
24146;DHT22;12308;50.948;4.706;2022-09-03T01:51:20;19.40;99.90
24146;DHT22;12308;50.948;4.706;2022-09-03T01:59:32;19.50;99.90
24146;DHT22;12308;50.948;4.706;2022-09-03T02:04:32;19.60;99.90
24146;DHT22;12308;50.948;4.706;2022-09-03T02:06:59;19.50;99.90
24146;DHT22;12308;50.948;4.706;2022-09-03T02:09:25;19.50;99.90
24146;DHT22;12308;50.948;4.706;2022-09-03T02:12:05;19.50;99.90
24146;DHT22;12308;50.948;4.706;2022-09-03T02:14:32;19.60;99.90
24146;DHT22;12308;50.948;4.706;2022-09-03T02:16:59;19.60;99.90
24146;DHT22;12308;50.948;4.706;2022-09-03T02:19:27;19.60;99.90
24146;DHT22;12308;50.948;4.706;2022-09-03T02:21:56;19.60;99.90
24146;DHT22;12308;50.948;4.706;2022-09-03T02:24:23;19.60;99.90
24146;DHT22;12308;50.948;4.706;2022-09-03T02:26:49;19.60;99.90
24146;DHT22;12308;50.948;4.706;2022-09-03T02:29:15;19.60;99.90
24146;DHT22;12308;50.948;4.706;2022-09-03T02:31:43;19.70;99.90
24146;DHT22;12308;50.948;4.706;2022-09-03T02:34:09;19.70;99.90
24146;DHT22;12308;50.948;4.706;2022-09-03T02:36:46;19.70;99.90
24146;DHT22;12308;50.948;4.706;2022-09-03T02:39:12;19.70;99.90
24146;DHT22;12308;50.948;4.706;2022-09-03T02:41:39;19.60;99.90
24146;DHT22;12308;50.948;4.706;2022-09-03T02:44:40;19.60;99.90
24146;DHT22;12308;50.948;4.706;2022-09-03T02:47:07;19.70;99.90
24146;DHT22;12308;50.948;4.706;2022-09-03T02:49:33;19.80;99.90
24146;DHT22;12308;50.948;4.706;2022-09-03T02:52:01;19.80;99.90
24146;DHT22;12308;50.948;4.706;2022-09-03T02:54:30;19.70;99.90
24146;DHT22;12308;50.948;4.706;2022-09-03T02:56:58;19.70;99.90
24146;DHT22;12308;50.948;4.706;2022-09-03T02:59:24;19.70;99.90
24146;DHT22;12308;50.948;4.706;2022-09-03T03:01:53;19.60;99.90
24146;DHT22;12308;50.948;4.706;2022-09-03T03:04:19;19.60;99.90
24146;DHT22;12308;50.948;4.706;2022-09-03T03:06:45;19.60;99.90
24146;DHT22;12308;50.948;4.706;2022-09-03T03:09:11;19.70;99.90
24146;DHT22;12308;50.948;4.706;2022-09-03T03:11:37;19.70;99.90
24146;DHT22;12308;50.948;4.706;2022-09-03T03:14:04;19.70;99.90
24146;DHT22;12308;50.948;4.706;2022-09-03T03:16:30;19.70;99.90
24146;DHT22;12308;50.948;4.706;2022-09-03T03:18:56;19.60;99.90
24146;DHT22;12308;50.948;4.706;2022-09-03T03:21:22;19.60;99.90
24146;DHT22;12308;50.948;4.706;2022-09-03T03:23:47;19.60;99.90
24146;DHT22;12308;50.948;4.706;2022-09-03T03:26:15;19.60;99.90
24146;DHT22;12308;50.948;4.706;2022-09-03T03:28:46;19.50;99.90
24146;DHT22;12308;50.948;4.706;2022-09-03T03:31:16;19.60;99.90
24146;DHT22;12308;50.948;4.706;2022-09-03T03:33:42;19.60;99.90
24146;DHT22;12308;50.948;4.706;2022-09-03T03:36:11;19.60;99.90
24146;DHT22;12308;50.948;4.706;2022-09-03T03:38:37;19.60;99.90
24146;DHT22;12308;50.948;4.706;2022-09-03T03:41:20;19.60;99.90
24146;DHT22;12308;50.948;4.706;2022-09-03T03:43:46;19.50;99.90
24146;DHT22;12308;50.948;4.706;2022-09-03T03:46:12;19.60;99.90
24146;DHT22;12308;50.948;4.706;2022-09-03T03:48:39;19.60;99.90
24146;DHT22;12308;50.948;4.706;2022-09-03T03:51:07;19.50;99.90
24146;DHT22;12308;50.948;4.706;2022-09-03T03:53:35;19.40;99.90
24146;DHT22;12308;50.948;4.706;2022-09-03T03:56:03;19.30;99.90
24146;DHT22;12308;50.948;4.706;2022-09-03T03:58:30;19.40;99.90
24146;DHT22;12308;50.948;4.706;2022-09-03T04:01:07;19.40;99.90
24146;DHT22;12308;50.948;4.706;2022-09-03T04:03:34;19.40;99.90
24146;DHT22;12308;50.948;4.706;2022-09-03T04:06:00;19.40;99.90
24146;DHT22;12308;50.948;4.706;2022-09-03T04:08:27;19.40;99.90
24146;DHT22;12308;50.948;4.706;2022-09-03T04:10:57;19.50;99.90
24146;DHT22;12308;50.948;4.706;2022-09-03T04:13:23;19.60;99.90
24146;DHT22;12308;50.948;4.706;2022-09-03T04:15:50;19.70;99.90
24146;DHT22;12308;50.948;4.706;2022-09-03T04:18:15;19.50;99.90
24146;DHT22;12308;50.948;4.706;2022-09-03T04:20:41;19.60;99.90
24146;DHT22;12308;50.948;4.706;2022-09-03T04:23:07;19.60;99.90
24146;DHT22;12308;50.948;4.706;2022-09-03T04:25:32;19.60;99.90
24146;DHT22;12308;50.948;4.706;2022-09-03T04:27:58;19.50;99.90
24146;DHT22;12308;50.948;4.706;2022-09-03T04:30:24;19.50;99.90
24146;DHT22;12308;50.948;4.706;2022-09-03T04:32:52;19.60;99.90
24146;DHT22;12308;50.948;4.706;2022-09-03T04:35:18;19.60;99.90
24146;DHT22;12308;50.948;4.706;2022-09-03T04:37:45;19.60;99.90
24146;DHT22;12308;50.948;4.706;2022-09-03T04:40:11;19.50;99.90
24146;DHT22;12308;50.948;4.706;2022-09-03T04:42:37;19.60;99.90
24146;DHT22;12308;50.948;4.706;2022-09-03T04:45:03;19.50;99.90
24146;DHT22;12308;50.948;4.706;2022-09-03T04:47:30;19.30;99.90
24146;DHT22;12308;50.948;4.706;2022-09-03T04:49:56;19.20;99.90
24146;DHT22;12308;50.948;4.706;2022-09-03T04:52:22;19.20;99.90
24146;DHT22;12308;50.948;4.706;2022-09-03T04:54:48;19.20;99.90
24146;DHT22;12308;50.948;4.706;2022-09-03T04:57:14;19.30;99.90
24146;DHT22;12308;50.948;4.706;2022-09-03T04:59:40;19.30;99.90
24146;DHT22;12308;50.948;4.706;2022-09-03T05:02:07;19.40;99.90
24146;DHT22;12308;50.948;4.706;2022-09-03T05:04:34;19.40;99.90
24146;DHT22;12308;50.948;4.706;2022-09-03T05:07:00;19.40;99.90
24146;DHT22;12308;50.948;4.706;2022-09-03T05:09:26;19.40;99.90
24146;DHT22;12308;50.948;4.706;2022-09-03T05:11:51;19.50;99.90
24146;DHT22;12308;50.948;4.706;2022-09-03T05:14:17;19.50;99.90
24146;DHT22;12308;50.948;4.706;2022-09-03T05:16:42;19.50;99.90
24146;DHT22;12308;50.948;4.706;2022-09-03T05:19:08;19.40;99.90
24146;DHT22;12308;50.948;4.706;2022-09-03T05:21:36;19.40;99.90
24146;DHT22;12308;50.948;4.706;2022-09-03T05:24:02;19.40;99.90
24146;DHT22;12308;50.948;4.706;2022-09-03T05:26:31;19.50;99.90
24146;DHT22;12308;50.948;4.706;2022-09-03T05:28:59;19.40;99.90
24146;DHT22;12308;50.948;4.706;2022-09-03T05:31:26;19.50;99.90
24146;DHT22;12308;50.948;4.706;2022-09-03T05:33:54;19.50;99.90
24146;DHT22;12308;50.948;4.706;2022-09-03T05:36:23;19.50;99.90
24146;DHT22;12308;50.948;4.706;2022-09-03T05:38:50;19.60;99.90
24146;DHT22;12308;50.948;4.706;2022-09-03T05:41:19;19.60;99.90
24146;DHT22;12308;50.948;4.706;2022-09-03T05:43:50;19.50;99.90
24146;DHT22;12308;50.948;4.706;2022-09-03T05:46:17;19.80;99.90
24146;DHT22;12308;50.948;4.706;2022-09-03T05:48:44;19.80;99.90
24146;DHT22;12308;50.948;4.706;2022-09-03T05:51:11;19.70;99.90
24146;DHT22;12308;50.948;4.706;2022-09-03T05:53:39;19.70;99.90
24146;DHT22;12308;50.948;4.706;2022-09-03T05:56:11;19.80;99.90
24146;DHT22;12308;50.948;4.706;2022-09-03T05:58:39;19.80;99.90
24146;DHT22;12308;50.948;4.706;2022-09-03T06:03:39;19.70;99.90
24146;DHT22;12308;50.948;4.706;2022-09-03T06:06:06;19.80;99.90
24146;DHT22;12308;50.948;4.706;2022-09-03T06:08:32;19.90;99.90
24146;DHT22;12308;50.948;4.706;2022-09-03T06:10:59;20.00;99.90
24146;DHT22;12308;50.948;4.706;2022-09-03T06:13:26;19.90;99.90
24146;DHT22;12308;50.948;4.706;2022-09-03T06:15:59;19.90;99.90
24146;DHT22;12308;50.948;4.706;2022-09-03T06:18:26;20.00;99.90
24146;DHT22;12308;50.948;4.706;2022-09-03T06:20:57;19.90;99.90
24146;DHT22;12308;50.948;4.706;2022-09-03T06:23:23;19.90;99.90
24146;DHT22;12308;50.948;4.706;2022-09-03T06:26:03;19.90;99.90
24146;DHT22;12308;50.948;4.706;2022-09-03T06:28:30;20.00;99.90
24146;DHT22;12308;50.948;4.706;2022-09-03T06:30:59;19.90;99.90
24146;DHT22;12308;50.948;4.706;2022-09-03T06:33:27;20.00;99.90
24146;DHT22;12308;50.948;4.706;2022-09-03T06:35:56;20.20;99.90
24146;DHT22;12308;50.948;4.706;2022-09-03T06:38:23;20.20;99.90
24146;DHT22;12308;50.948;4.706;2022-09-03T06:40:54;20.30;99.90
24146;DHT22;12308;50.948;4.706;2022-09-03T06:43:20;20.50;99.90
24146;DHT22;12308;50.948;4.706;2022-09-03T06:46:00;20.50;99.90
24146;DHT22;12308;50.948;4.706;2022-09-03T06:48:27;20.80;99.90
24146;DHT22;12308;50.948;4.706;2022-09-03T06:51:05;20.80;99.90
24146;DHT22;12308;50.948;4.706;2022-09-03T06:53:39;20.90;99.90
24146;DHT22;12308;50.948;4.706;2022-09-03T06:56:07;21.10;99.90
24146;DHT22;12308;50.948;4.706;2022-09-03T06:58:35;21.20;99.90
24146;DHT22;12308;50.948;4.706;2022-09-03T07:01:15;21.20;99.90
24146;DHT22;12308;50.948;4.706;2022-09-03T07:03:42;21.30;99.90
24146;DHT22;12308;50.948;4.706;2022-09-03T07:06:16;21.30;99.90
24146;DHT22;12308;50.948;4.706;2022-09-03T07:08:43;21.40;99.90
24146;DHT22;12308;50.948;4.706;2022-09-03T07:11:13;21.50;99.90
24146;DHT22;12308;50.948;4.706;2022-09-03T07:13:44;21.60;99.90
24146;DHT22;12308;50.948;4.706;2022-09-03T07:16:45;21.60;99.90
24146;DHT22;12308;50.948;4.706;2022-09-03T07:19:06;21.70;99.90
24146;DHT22;12308;50.948;4.706;2022-09-03T07:21:34;21.90;99.90
24146;DHT22;12308;50.948;4.706;2022-09-03T07:24:01;21.90;99.90
24146;DHT22;12308;50.948;4.706;2022-09-03T07:26:31;22.00;99.90
24146;DHT22;12308;50.948;4.706;2022-09-03T07:28:57;22.20;99.90
24146;DHT22;12308;50.948;4.706;2022-09-03T07:31:30;22.50;99.90
24146;DHT22;12308;50.948;4.706;2022-09-03T07:33:58;22.70;99.90
24146;DHT22;12308;50.948;4.706;2022-09-03T07:36:25;22.90;99.90
24146;DHT22;12308;50.948;4.706;2022-09-03T07:38:54;23.00;99.90
24146;DHT22;12308;50.948;4.706;2022-09-03T07:41:21;23.10;99.90
24146;DHT22;12308;50.948;4.706;2022-09-03T07:43:47;22.90;99.90
24146;DHT22;12308;50.948;4.706;2022-09-03T07:46:15;23.20;99.90
24146;DHT22;12308;50.948;4.706;2022-09-03T07:48:46;23.50;99.90
24146;DHT22;12308;50.948;4.706;2022-09-03T07:51:13;23.70;99.90
24146;DHT22;12308;50.948;4.706;2022-09-03T07:53:39;23.90;99.90
24146;DHT22;12308;50.948;4.706;2022-09-03T07:56:06;23.90;99.90
24146;DHT22;12308;50.948;4.706;2022-09-03T07:58:33;23.80;99.90
24146;DHT22;12308;50.948;4.706;2022-09-03T08:01:05;23.70;99.90
24146;DHT22;12308;50.948;4.706;2022-09-03T08:03:36;23.60;99.90
24146;DHT22;12308;50.948;4.706;2022-09-03T08:06:04;23.50;99.90
24146;DHT22;12308;50.948;4.706;2022-09-03T08:08:30;23.50;99.90
24146;DHT22;12308;50.948;4.706;2022-09-03T08:11:03;23.50;99.90
24146;DHT22;12308;50.948;4.706;2022-09-03T08:13:31;23.50;99.90
24146;DHT22;12308;50.948;4.706;2022-09-03T08:15:57;23.50;99.90
24146;DHT22;12308;50.948;4.706;2022-09-03T08:18:24;23.70;99.90
24146;DHT22;12308;50.948;4.706;2022-09-03T08:20:51;23.80;99.90
24146;DHT22;12308;50.948;4.706;2022-09-03T08:23:17;23.80;99.90
24146;DHT22;12308;50.948;4.706;2022-09-03T08:25:42;24.00;99.90
24146;DHT22;12308;50.948;4.706;2022-09-03T08:28:08;24.10;99.90
24146;DHT22;12308;50.948;4.706;2022-09-03T08:30:35;24.10;99.90
24146;DHT22;12308;50.948;4.706;2022-09-03T08:33:01;24.10;99.90
24146;DHT22;12308;50.948;4.706;2022-09-03T08:35:31;24.10;99.90
24146;DHT22;12308;50.948;4.706;2022-09-03T08:37:58;23.90;99.90
24146;DHT22;12308;50.948;4.706;2022-09-03T08:40:31;23.80;99.90
24146;DHT22;12308;50.948;4.706;2022-09-03T08:43:17;23.70;99.90
24146;DHT22;12308;50.948;4.706;2022-09-03T08:45:44;23.60;99.90
24146;DHT22;12308;50.948;4.706;2022-09-03T08:48:18;23.50;99.90
24146;DHT22;12308;50.948;4.706;2022-09-03T08:50:48;23.40;99.90
24146;DHT22;12308;50.948;4.706;2022-09-03T08:53:30;23.50;99.90
24146;DHT22;12308;50.948;4.706;2022-09-03T08:56:08;23.50;99.90
24146;DHT22;12308;50.948;4.706;2022-09-03T08:58:36;23.40;99.90
24146;DHT22;12308;50.948;4.706;2022-09-03T09:17:38;23.40;99.90
24146;DHT22;12308;50.948;4.706;2022-09-03T09:22:48;23.70;99.90
24146;DHT22;12308;50.948;4.706;2022-09-03T09:25:20;23.90;99.90
24146;DHT22;12308;50.948;4.706;2022-09-03T09:27:57;24.10;99.90
24146;DHT22;12308;50.948;4.706;2022-09-03T09:30:24;24.20;99.90
24146;DHT22;12308;50.948;4.706;2022-09-03T09:32:50;24.20;99.90
24146;DHT22;12308;50.948;4.706;2022-09-03T09:35:17;24.30;99.90
24146;DHT22;12308;50.948;4.706;2022-09-03T09:37:57;24.20;99.90
24146;DHT22;12308;50.948;4.706;2022-09-03T09:42:50;24.50;99.90
24146;DHT22;12308;50.948;4.706;2022-09-03T09:45:23;24.50;99.90
24146;DHT22;12308;50.948;4.706;2022-09-03T09:47:54;24.50;99.90
24146;DHT22;12308;50.948;4.706;2022-09-03T09:50:20;24.50;99.90
24146;DHT22;12308;50.948;4.706;2022-09-03T09:52:46;24.60;99.90
24146;DHT22;12308;50.948;4.706;2022-09-03T09:55:18;24.70;99.90
24146;DHT22;12308;50.948;4.706;2022-09-03T09:57:45;24.90;99.90
24146;DHT22;12308;50.948;4.706;2022-09-03T10:00:14;25.00;99.90
24146;DHT22;12308;50.948;4.706;2022-09-03T10:02:47;25.20;99.90
24146;DHT22;12308;50.948;4.706;2022-09-03T10:08:01;25.60;99.90
24146;DHT22;12308;50.948;4.706;2022-09-03T10:10:29;25.50;99.90
24146;DHT22;12308;50.948;4.706;2022-09-03T10:13:02;25.50;99.90
24146;DHT22;12308;50.948;4.706;2022-09-03T10:15:42;25.70;99.90
24146;DHT22;12308;50.948;4.706;2022-09-03T10:21:11;25.70;99.90
24146;DHT22;12308;50.948;4.706;2022-09-03T10:23:50;25.90;99.90
24146;DHT22;12308;50.948;4.706;2022-09-03T10:26:21;26.30;99.90
24146;DHT22;12308;50.948;4.706;2022-09-03T10:28:56;26.70;99.90
24146;DHT22;12308;50.948;4.706;2022-09-03T10:39:58;28.10;99.90
24146;DHT22;12308;50.948;4.706;2022-09-03T10:49:02;27.70;99.90
24146;DHT22;12308;50.948;4.706;2022-09-03T10:51:45;27.80;99.90
24146;DHT22;12308;50.948;4.706;2022-09-03T11:05:36;28.10;99.90
24146;DHT22;12308;50.948;4.706;2022-09-03T11:10:41;28.40;99.90
24146;DHT22;12308;50.948;4.706;2022-09-03T11:13:23;28.40;99.90
24146;DHT22;12308;50.948;4.706;2022-09-03T11:15:55;28.10;99.90
24146;DHT22;12308;50.948;4.706;2022-09-03T11:21:00;28.00;99.90
24146;DHT22;12308;50.948;4.706;2022-09-03T11:23:32;27.90;99.90
24146;DHT22;12308;50.948;4.706;2022-09-03T11:26:04;27.70;99.90
24146;DHT22;12308;50.948;4.706;2022-09-03T11:34:07;27.70;99.90
24146;DHT22;12308;50.948;4.706;2022-09-03T11:36:35;27.70;99.90
24146;DHT22;12308;50.948;4.706;2022-09-03T11:39:32;27.50;99.90
24146;DHT22;12308;50.948;4.706;2022-09-03T11:42:00;27.50;99.90
24146;DHT22;12308;50.948;4.706;2022-09-03T11:44:36;27.70;99.90
24146;DHT22;12308;50.948;4.706;2022-09-03T11:47:11;27.60;99.90
24146;DHT22;12308;50.948;4.706;2022-09-03T11:49:44;27.70;99.90
24146;DHT22;12308;50.948;4.706;2022-09-03T11:52:10;27.80;99.90
24146;DHT22;12308;50.948;4.706;2022-09-03T11:54:44;27.90;99.90
24146;DHT22;12308;50.948;4.706;2022-09-03T11:57:13;28.20;99.90
24146;DHT22;12308;50.948;4.706;2022-09-03T11:59:41;28.30;99.90
24146;DHT22;12308;50.948;4.706;2022-09-03T12:02:28;28.40;99.90
24146;DHT22;12308;50.948;4.706;2022-09-03T12:16:14;27.80;99.90
24146;DHT22;12308;50.948;4.706;2022-09-03T12:18:44;27.80;99.90
24146;DHT22;12308;50.948;4.706;2022-09-03T12:21:17;27.60;99.90
24146;DHT22;12308;50.948;4.706;2022-09-03T12:23:48;27.20;99.90
24146;DHT22;12308;50.948;4.706;2022-09-03T12:26:25;27.40;99.90
24146;DHT22;12308;50.948;4.706;2022-09-03T12:29:00;27.30;99.90
24146;DHT22;12308;50.948;4.706;2022-09-03T12:31:32;27.30;99.90
24146;DHT22;12308;50.948;4.706;2022-09-03T12:34:14;27.40;99.90
24146;DHT22;12308;50.948;4.706;2022-09-03T12:36:43;27.60;99.90
24146;DHT22;12308;50.948;4.706;2022-09-03T12:39:16;27.40;99.90
24146;DHT22;12308;50.948;4.706;2022-09-03T12:41:57;27.10;99.90
24146;DHT22;12308;50.948;4.706;2022-09-03T12:44:39;26.80;99.90
24146;DHT22;12308;50.948;4.706;2022-09-03T12:47:17;26.90;99.90
24146;DHT22;12308;50.948;4.706;2022-09-03T12:49:48;26.90;99.90
24146;DHT22;12308;50.948;4.706;2022-09-03T12:52:47;27.20;99.90
24146;DHT22;12308;50.948;4.706;2022-09-03T12:58:16;27.60;99.90
24146;DHT22;12308;50.948;4.706;2022-09-03T13:05:53;27.90;99.90
24146;DHT22;12308;50.948;4.706;2022-09-03T13:08:26;27.90;99.90
24146;DHT22;12308;50.948;4.706;2022-09-03T13:10:59;27.80;99.90
24146;DHT22;12308;50.948;4.706;2022-09-03T13:13:32;28.10;99.90
24146;DHT22;12308;50.948;4.706;2022-09-03T13:16:27;28.10;99.90
24146;DHT22;12308;50.948;4.706;2022-09-03T13:21:49;28.10;99.90
24146;DHT22;12308;50.948;4.706;2022-09-03T13:30:09;28.60;99.90
24146;DHT22;12308;50.948;4.706;2022-09-03T13:38:07;28.80;99.90
24146;DHT22;12308;50.948;4.706;2022-09-03T13:43:51;29.30;99.90
24146;DHT22;12308;50.948;4.706;2022-09-03T13:46:29;29.50;99.90
24146;DHT22;12308;50.948;4.706;2022-09-03T13:49:36;29.60;99.90
24146;DHT22;12308;50.948;4.706;2022-09-03T13:58:21;29.60;99.90
24146;DHT22;12308;50.948;4.706;2022-09-03T14:01:01;29.70;99.90
24146;DHT22;12308;50.948;4.706;2022-09-03T14:03:53;29.60;99.90
24146;DHT22;12308;50.948;4.706;2022-09-03T14:06:45;29.80;99.80
24146;DHT22;12308;50.948;4.706;2022-09-03T14:12:34;29.70;99.90
24146;DHT22;12308;50.948;4.706;2022-09-03T14:20:43;29.30;99.90
24146;DHT22;12308;50.948;4.706;2022-09-03T14:24:03;29.10;99.90
24146;DHT22;12308;50.948;4.706;2022-09-03T14:26:33;29.50;99.90
24146;DHT22;12308;50.948;4.706;2022-09-03T14:29:13;29.30;99.90
24146;DHT22;12308;50.948;4.706;2022-09-03T14:32:14;29.20;99.90
24146;DHT22;12308;50.948;4.706;2022-09-03T14:48:55;29.00;99.90
24146;DHT22;12308;50.948;4.706;2022-09-03T14:51:42;28.70;99.90
24146;DHT22;12308;50.948;4.706;2022-09-03T15:05:09;28.40;99.90
24146;DHT22;12308;50.948;4.706;2022-09-03T15:07:48;28.40;99.90
24146;DHT22;12308;50.948;4.706;2022-09-03T15:15:57;28.70;99.90
24146;DHT22;12308;50.948;4.706;2022-09-03T15:24:19;29.00;99.90
24146;DHT22;12308;50.948;4.706;2022-09-03T15:27:15;29.00;99.90
24146;DHT22;12308;50.948;4.706;2022-09-03T15:30:09;28.90;99.90
24146;DHT22;12308;50.948;4.706;2022-09-03T15:35:58;28.10;99.90
24146;DHT22;12308;50.948;4.706;2022-09-03T15:41:00;27.10;99.90
24146;DHT22;12308;50.948;4.706;2022-09-03T15:43:31;26.10;99.90
24146;DHT22;12308;50.948;4.706;2022-09-03T15:46:03;25.70;99.90
24146;DHT22;12308;50.948;4.706;2022-09-03T15:51:16;24.50;99.90
24146;DHT22;12308;50.948;4.706;2022-09-03T15:56:40;24.40;99.90
24146;DHT22;12308;50.948;4.706;2022-09-03T15:59:18;24.60;99.90
24146;DHT22;12308;50.948;4.706;2022-09-03T16:02:05;24.90;99.90
24146;DHT22;12308;50.948;4.706;2022-09-03T16:12:35;24.80;99.90
24146;DHT22;12308;50.948;4.706;2022-09-03T16:15:11;24.70;99.90
24146;DHT22;12308;50.948;4.706;2022-09-03T16:23:28;25.10;99.90
24146;DHT22;12308;50.948;4.706;2022-09-03T16:26:14;25.30;99.90
24146;DHT22;12308;50.948;4.706;2022-09-03T16:28:47;25.50;99.90
24146;DHT22;12308;50.948;4.706;2022-09-03T16:37:11;25.50;99.90
24146;DHT22;12308;50.948;4.706;2022-09-03T16:39:51;25.60;99.90
24146;DHT22;12308;50.948;4.706;2022-09-03T16:48:21;25.20;99.90
24146;DHT22;12308;50.948;4.706;2022-09-03T16:53:41;25.00;99.90
24146;DHT22;12308;50.948;4.706;2022-09-03T16:58:54;24.60;99.90
24146;DHT22;12308;50.948;4.706;2022-09-03T17:01:37;24.60;99.90
24146;DHT22;12308;50.948;4.706;2022-09-03T17:07:36;24.70;99.90
24146;DHT22;12308;50.948;4.706;2022-09-03T17:21:46;24.00;99.90
24146;DHT22;12308;50.948;4.706;2022-09-03T17:24:27;23.90;99.90
24146;DHT22;12308;50.948;4.706;2022-09-03T17:27:19;24.00;99.90
24146;DHT22;12308;50.948;4.706;2022-09-03T17:32:45;23.90;99.90
24146;DHT22;12308;50.948;4.706;2022-09-03T17:35:21;24.10;99.90
24146;DHT22;12308;50.948;4.706;2022-09-03T17:45:55;24.10;99.90
24146;DHT22;12308;50.948;4.706;2022-09-03T17:51:00;23.90;99.90
24146;DHT22;12308;50.948;4.706;2022-09-03T17:53:38;23.80;99.90
24146;DHT22;12308;50.948;4.706;2022-09-03T17:56:25;23.70;99.90
24146;DHT22;12308;50.948;4.706;2022-09-03T18:01:53;23.50;99.90
24146;DHT22;12308;50.948;4.706;2022-09-03T18:04:44;23.30;99.90
24146;DHT22;12308;50.948;4.706;2022-09-03T18:13:11;23.30;99.90
24146;DHT22;12308;50.948;4.706;2022-09-03T18:15:53;23.20;99.90
24146;DHT22;12308;50.948;4.706;2022-09-03T18:18:28;23.10;99.90
24146;DHT22;12308;50.948;4.706;2022-09-03T18:21:02;23.00;99.90
24146;DHT22;12308;50.948;4.706;2022-09-03T18:27:09;23.00;99.90
24146;DHT22;12308;50.948;4.706;2022-09-03T18:30:03;23.00;99.90
24146;DHT22;12308;50.948;4.706;2022-09-03T18:32:48;22.80;99.90
24146;DHT22;12308;50.948;4.706;2022-09-03T18:35:32;22.80;99.90
24146;DHT22;12308;50.948;4.706;2022-09-03T18:38:29;22.80;99.90
24146;DHT22;12308;50.948;4.706;2022-09-03T18:56:49;22.60;99.90
24146;DHT22;12308;50.948;4.706;2022-09-03T19:03:24;22.60;99.90
24146;DHT22;12308;50.948;4.706;2022-09-03T19:06:46;22.50;99.90
24146;DHT22;12308;50.948;4.706;2022-09-03T19:12:57;22.60;99.90
24146;DHT22;12308;50.948;4.706;2022-09-03T19:18:57;22.50;99.90
24146;DHT22;12308;50.948;4.706;2022-09-03T19:22:05;22.40;99.90
24146;DHT22;12308;50.948;4.706;2022-09-03T19:24:56;22.30;99.90
24146;DHT22;12308;50.948;4.706;2022-09-03T19:34:07;22.20;99.90
24146;DHT22;12308;50.948;4.706;2022-09-03T19:37:16;22.30;99.90
24146;DHT22;12308;50.948;4.706;2022-09-03T19:55:39;21.80;99.90
24146;DHT22;12308;50.948;4.706;2022-09-03T19:58:29;21.80;99.90
24146;DHT22;12308;50.948;4.706;2022-09-03T20:01:15;21.70;99.90
24146;DHT22;12308;50.948;4.706;2022-09-03T20:04:09;21.70;99.90
24146;DHT22;12308;50.948;4.706;2022-09-03T20:06:56;21.60;99.90
24146;DHT22;12308;50.948;4.706;2022-09-03T20:09:42;21.60;99.90
24146;DHT22;12308;50.948;4.706;2022-09-03T20:12:32;21.50;99.90
24146;DHT22;12308;50.948;4.706;2022-09-03T20:15:01;21.40;99.90
24146;DHT22;12308;50.948;4.706;2022-09-03T20:17:41;21.30;99.90
24146;DHT22;12308;50.948;4.706;2022-09-03T20:20:15;21.30;99.90
24146;DHT22;12308;50.948;4.706;2022-09-03T20:31:50;21.30;99.90
24146;DHT22;12308;50.948;4.706;2022-09-03T20:44:27;21.00;99.90
24146;DHT22;12308;50.948;4.706;2022-09-03T20:50:28;20.90;99.90
24146;DHT22;12308;50.948;4.706;2022-09-03T20:56:36;20.90;99.90
24146;DHT22;12308;50.948;4.706;2022-09-03T21:01:54;20.60;99.90
24146;DHT22;12308;50.948;4.706;2022-09-03T21:04:36;20.70;99.90
24146;DHT22;12308;50.948;4.706;2022-09-03T21:07:40;20.70;99.90
24146;DHT22;12308;50.948;4.706;2022-09-03T21:15:40;20.50;99.90
24146;DHT22;12308;50.948;4.706;2022-09-03T21:21:14;20.50;99.90
24146;DHT22;12308;50.948;4.706;2022-09-03T21:23:47;20.50;99.90
24146;DHT22;12308;50.948;4.706;2022-09-03T21:26:28;20.50;99.90
24146;DHT22;12308;50.948;4.706;2022-09-03T21:29:03;20.40;99.90
24146;DHT22;12308;50.948;4.706;2022-09-03T21:31:36;20.40;99.90
24146;DHT22;12308;50.948;4.706;2022-09-03T21:34:10;20.40;99.90
24146;DHT22;12308;50.948;4.706;2022-09-03T21:36:37;20.40;99.90
24146;DHT22;12308;50.948;4.706;2022-09-03T21:39:13;20.40;99.90
24146;DHT22;12308;50.948;4.706;2022-09-03T21:41:44;20.50;99.90
24146;DHT22;12308;50.948;4.706;2022-09-03T21:44:21;20.60;99.90
24146;DHT22;12308;50.948;4.706;2022-09-03T21:47:14;20.60;99.90
24146;DHT22;12308;50.948;4.706;2022-09-03T21:50:04;20.60;99.90
24146;DHT22;12308;50.948;4.706;2022-09-03T21:52:54;20.60;99.90
24146;DHT22;12308;50.948;4.706;2022-09-03T21:58:27;20.50;99.90
24146;DHT22;12308;50.948;4.706;2022-09-03T22:01:02;20.50;99.90
24146;DHT22;12308;50.948;4.706;2022-09-03T22:03:31;20.40;99.90
24146;DHT22;12308;50.948;4.706;2022-09-03T22:06:04;20.30;99.90
24146;DHT22;12308;50.948;4.706;2022-09-03T22:08:45;20.20;99.90
24146;DHT22;12308;50.948;4.706;2022-09-03T22:11:32;20.20;99.90
24146;DHT22;12308;50.948;4.706;2022-09-03T22:14:12;20.10;99.90
24146;DHT22;12308;50.948;4.706;2022-09-03T22:19:17;20.20;99.90
24146;DHT22;12308;50.948;4.706;2022-09-03T22:21:57;20.20;99.90
24146;DHT22;12308;50.948;4.706;2022-09-03T22:27:19;20.10;99.90
24146;DHT22;12308;50.948;4.706;2022-09-03T22:43:44;19.60;99.90
24146;DHT22;12308;50.948;4.706;2022-09-03T22:46:16;19.50;99.90
24146;DHT22;12308;50.948;4.706;2022-09-03T22:49:13;19.50;99.90